Impacts TAF Board INFO
FOR SITUATIONAL AWARENESS. NOT TO BE USED FOR FLIGHT PLANNING PURPOSES.
IDs:

KPIT - Pittsburgh Intl, PA, US

Issued at 2056 UTC 19 Jul 2018
Updated at 2314 UTC 19 Jul 2018
Potential Impact None Slight Moderate High
Time<<20/12Z 20/13Z 20/14Z 20/15Z 20/16Z 20/17Z 20/18Z 20/19Z 20/20Z 20/21Z 20/22Z 20/23Z 21/00Z>>
Type PRVL PRVL PRVL PRVL PRVL PRVL PRVL PRVL PRVL PRVL PRVL PRVL
VIS >6 >6 >6 >6 >6 >6 >6 >6 >6 >6 >6 >6
CIG -- -- -- 120 120 120 120 120 120 120 50 50
Cover SCT SCT SCT BKN BKN BKN BKN BKN BKN BKN BKN BKN
FltCat VFR VFR VFR VFR VFR VFR VFR VFR VFR VFR VFR VFR
WX -- -- -- -- -- -- -- -- -- -- VCTS VCTS
WDir 180 180 180 180 180 180 180 180 180 180 170 170
WSpd 4 4 4 9 9 9 9 9 9 9 9 9
WGst -- -- -- -- -- -- -- -- -- -- -- --

Raw TAF
KPIT 192056Z 1921/2024 18004KT P6SM SCT250
  FM201500 18009KT P6SM BKN120
  FM202200 17009KT P6SM VCTS BKN050CB


METAR Board
Radar Display
Forecast Discussion

FOR SITUATIONAL AWARENESS. NOT TO BE USED FOR FLIGHT PLANNING PURPOSES.